M I D A S
Marine Information and Data Acquisition System
Tripno 1863 of the Zeeleeuw from 2010-04-22 06:42:15 to 2010-04-22 15:06:58
Back to CruiseResearch ActivitiesStationsMapUnderway DataData graphs

EquipmentUnitsComment
TimeDGPSUTC
LatitudeDGPSDM.mWGS84
LongitudeDGPSDM.mWGS84
TemperatureSBE03/SBE38deg celciusITS90
ConductivitySBE21S/mITS90
SalinitySBE21 Practical Salinity Units
ChlorophylAChelsea fluorimeterg/lCalibrated in Aceton
Missing or incorrect values are displayed as -999
Sea surface data collected by the RV Zeeleeuw from 2010-04-22 06:23:39 to 2010-04-22 15:15:14
Time Latitude Longitude Temperature Conductivity Salinity ChlorophylA
2010-04-22 06:24:46 51°13.678 2°55.89 17.7808 0.00827 0.048317 -1.000568
2010-04-22 06:25:46 51°13.702 2°55.786 17.7929 0.00827 0.048319 -1.000568
2010-04-22 06:26:46 51°13.724 2°55.721 17.6073 0.008166 0.047782 -1.000568
2010-04-22 06:27:46 51°13.776 2°55.669 17.7213 0.008166 0.047785 -1.000568
2010-04-22 06:28:46 51°13.858 2°55.618 17.7571 0.008166 0.047793 -1.000568
2010-04-22 06:29:46 51°13.921 2°55.628 17.6157 0.008166 0.047797 -1.000568
2010-04-22 06:30:46 51°13.949 2°55.657 17.7906 0.008166 0.0478 -0.965744
2010-04-22 06:31:45 51°13.983 2°55.574 11.4686 3.938943 29.38643 1.088875
2010-04-22 06:32:45 51°14.088 2°55.475 10.6461 3.27959 28.295705 2.864902
2010-04-22 06:33:46 51°14.204 2°55.37 10.4776 3.154827 27.636613 2.412189
2010-04-22 06:34:43 51°14.318 2°55.247 10.429 3.171477 27.945003 2.969374
2010-04-22 06:35:42 51°14.453 2°55.095 10.3747 3.193712 28.21193 3.526559
2010-04-22 06:36:42 51°14.604 2°54.939 10.2888 3.255467 28.8835 5.650826
2010-04-22 06:37:42 51°14.748 2°54.741 10.108 3.299838 29.443855 3.178318
2010-04-22 06:38:42 51°14.923 2°54.515 10.0719 3.322078 29.763467 2.203245
2010-04-22 06:39:42 51°15.117 2°54.317 10.0388 3.317863 29.750787 2.93455
2010-04-22 06:40:43 51°15.312 2°54.109 9.9684 3.320814 29.817339 8.053686
2010-04-22 06:41:42 51°15.503 2°53.911 9.9128 3.33146 29.972788 3.805151
2010-04-22 06:42:42 51°15.694 2°53.709 9.8115 3.334201 30.062667 3.526559
2010-04-22 06:43:42 51°15.877 2°53.491 9.7662 3.33104 30.101294 3.352439
2010-04-22 06:44:42 51°16.07 2°53.293 9.7454 3.337049 30.206969 2.029124
2010-04-22 06:45:42 51°16.289 2°53.156 9.7307 3.338314 30.230551 1.959476
2010-04-22 06:46:42 51°16.512 2°53.028 9.7477 3.335046 30.207294 2.238069
2010-04-22 06:47:43 51°16.734 2°52.893 9.7137 3.343373 30.286787 1.785356
2010-04-22 06:48:42 51°16.944 2°52.75 9.6546 3.34232 30.308997 1.437116
2010-04-22 06:49:42 51°17.158 2°52.599 9.6134 3.35265 30.462328 4.188216
2010-04-22 06:50:42 51°17.396 2°52.561 9.5861 3.358658 30.547015 15.575681
2010-04-22 06:51:42 51°17.637 2°52.555 9.547 3.358131 30.57145 17.769597
2010-04-22 06:52:42 51°17.877 2°52.542 9.4847 3.358764 30.618064 12.058452
2010-04-22 06:53:42 51°18.117 2°52.526 9.4268 3.361189 30.687125 9.934185
2010-04-22 06:54:42 51°18.357 2°52.502 9.4218 3.35729 30.696489 9.899361
2010-04-22 06:55:42 51°18.595 2°52.479 9.4828 3.351176 30.621291 18.222309
2010-04-22 06:56:42 51°18.833 2°52.455 9.4856 3.345906 30.531105 19.998336
2010-04-22 06:57:42 51°19.07 2°52.431 9.4951 3.344325 30.515115 15.331913
2010-04-22 06:58:42 51°19.307 2°52.405 9.4875 3.344219 30.507811 12.162924
2010-04-22 06:59:42 51°19.547 2°52.399 9.4701 3.343587 30.511814 9.272528
2010-04-22 07:00:42 51°19.789 2°52.412 9.4511 3.342428 30.513957 7.322381
2010-04-22 07:01:42 51°20.032 2°52.424 9.3867 3.341058 30.52369 6.869668
2010-04-22 07:02:42 51°20.274 2°52.436 9.2398 3.341902 30.596292 7.844741
2010-04-22 07:03:42 51°20.514 2°52.442 9.0941 3.345698 30.767478 7.461677
2010-04-22 07:04:42 51°20.751 2°52.474 9.0444 3.351813 30.936193 8.123334
2010-04-22 07:05:42 51°20.986 2°52.549 9.0145 3.360667 31.066124 8.541223
2010-04-22 07:06:42 51°21.221 2°52.626 9.0372 3.36014 31.074329 7.984038
2010-04-22 07:07:42 51°21.458 2°52.703 9.0487 3.355291 31.010321 7.078612
2010-04-22 07:08:42 51°21.693 2°52.778 9.0696 3.358348 31.035922 6.591076
2010-04-22 07:09:42 51°21.931 2°52.817 9.058 3.352129 30.961515 5.964243
2010-04-22 07:10:42 51°22.17 2°52.798 9.0695 3.36267 31.080205 6.416955
2010-04-22 07:11:42 51°22.407 2°52.755 9.0657 3.353815 30.972364 4.675753
2010-04-22 07:12:42 51°22.643 2°52.716 9.0794 3.346753 30.904344 4.083744
2010-04-22 07:13:42 51°22.884 2°52.68 9.1049 3.346964 30.893697 3.665855
2010-04-22 07:14:42 51°23.125 2°52.648 9.1189 3.344961 30.851196 3.247966
2010-04-22 07:15:42 51°23.366 2°52.611 9.1593 3.338321 30.769166 2.899726
2010-04-22 07:16:42 51°23.611 2°52.58 9.1647 3.34359 30.796113 2.621133
2010-04-22 07:17:42 51°23.854 2°52.548 9.1491 3.341799 30.774994 2.481837
2010-04-22 07:18:42 51°24.098 2°52.518 9.0956 3.349177 30.890042 3.491735
2010-04-22 07:19:42 51°24.341 2°52.487 9.0021 3.354659 30.98956 3.456911
2010-04-22 07:20:42 51°24.583 2°52.456 8.9396 3.350443 31.006377 2.412189
2010-04-22 07:21:42 51°24.824 2°52.427 8.9025 3.35719 31.12661 2.690782
2010-04-22 07:22:42 51°25.065 2°52.398 8.9054 3.369734 31.286699 3.526559
2010-04-22 07:23:42 51°25.306 2°52.368 8.8661 3.357928 31.159415 2.93455
2010-04-22 07:24:42 51°25.55 2°52.33 8.6913 3.368469 31.324444 3.944447
2010-04-22 07:25:42 51°25.79 2°52.289 8.6065 3.393031 31.723585 5.894594
2010-04-22 07:26:42 51°26.029 2°52.256 8.565 3.400938 31.873231 8.018862
2010-04-22 07:27:42 51°26.274 2°52.256 8.5395 3.406209 31.957918 7.392029
2010-04-22 07:28:42 51°26.519 2°52.258 8.5022 3.399252 31.918362 6.730372
2010-04-22 07:29:42 51°26.762 2°52.259 8.4721 3.402731 31.983822 8.192982
2010-04-22 07:30:42 51°27.004 2°52.261 8.4838 3.407475 32.058103 7.670621
2010-04-22 07:31:42 51°27.246 2°52.264 8.4774 3.408002 32.05834 6.80002
2010-04-22 07:32:42 51°27.488 2°52.268 8.4577 3.415065 32.14263 6.660724
2010-04-22 07:33:42 51°27.728 2°52.272 8.4733 3.415592 32.151909 6.730372
2010-04-22 07:34:42 51°27.968 2°52.266 8.3962 3.42139 32.210213 7.217908
2010-04-22 07:35:42 51°28.209 2°52.262 8.3777 3.434779 32.41101 9.446648
2010-04-22 07:36:42 51°28.452 2°52.258 8.3639 3.436993 32.455578 9.72524
2010-04-22 07:37:42 51°28.693 2°52.258 8.3538 3.436887 32.465173 9.969009
2010-04-22 07:38:42 51°28.934 2°52.259 8.3447 3.438574 32.489747 10.630666
2010-04-22 07:39:42 51°29.176 2°52.26 8.3396 3.434674 32.45419 8.645695
2010-04-22 07:40:42 51°29.421 2°52.26 8.3262 3.42487 32.364344 6.312483
2010-04-22 07:41:42 51°29.666 2°52.257 8.3375 3.419283 32.314892 4.815049
2010-04-22 07:42:42 51°29.912 2°52.256 8.3489 3.415488 32.264442 3.839975
2010-04-22 07:43:42 51°30.155 2°52.255 8.3521 3.421497 32.317541 4.014096
2010-04-22 07:44:42 51°30.401 2°52.252 8.3461 3.41728 32.273342 3.422087
2010-04-22 07:45:42 51°30.65 2°52.25 8.3208 3.411588 32.221278 3.143494
2010-04-22 07:46:42 51°30.894 2°52.248 8.3289 3.421919 32.342536 4.640929
2010-04-22 07:47:42 51°31.059 2°52.256 8.3094 3.456496 32.709394 6.486603
2010-04-22 07:48:42 51°31.161 2°52.328 8.3121 3.459026 32.746794 6.556251
2010-04-22 07:49:42 51°31.227 2°52.46 8.301 3.460291 32.764731 6.173187
2010-04-22 07:50:42 51°31.293 2°52.568 8.3017 3.460291 32.775559 6.173187
2010-04-22 07:51:42 51°31.343 2°52.62 8.2963 3.457972 32.747301 5.058817
2010-04-22 07:52:46 51°31.343 2°52.632 8.2913 3.453861 32.705614 4.780225
2010-04-22 07:53:45 51°31.336 2°52.629 8.2781 3.46124 32.794828 6.416955
2010-04-22 07:54:43 51°31.336 2°52.629 8.2754 3.463138 32.817894 6.765196
2010-04-22 07:55:42 51°31.34 2°52.63 8.2798 3.463981 32.825994 6.80002
2010-04-22 07:56:42 51°31.347 2°52.633 8.2769 3.465352 32.844296 7.008964
2010-04-22 07:57:42 51°31.355 2°52.638 8.2836 3.46377 32.824551 6.80002
2010-04-22 07:58:42 51°31.366 2°52.642 8.2885 3.463243 32.814354 6.591076
2010-04-22 07:59:42 51°31.379 2°52.645 8.2873 3.462716 32.803386 6.416955
2010-04-22 08:00:42 51°31.39 2°52.655 8.2919 3.461556 32.791187 6.312483
2010-04-22 08:01:42 51°31.387 2°52.671 8.295 3.461029 32.785642 5.894594
2010-04-22 08:02:42 51°31.378 2°52.685 8.297 3.459975 32.771459 5.894594
2010-04-22 08:03:42 51°31.37 2°52.691 8.297 3.459132 32.757176 5.302586
2010-04-22 08:04:42 51°31.366 2°52.691 8.2941 3.460081 32.770247 5.616002
2010-04-22 08:05:42 51°31.367 2°52.688 8.3007 3.461662 32.787652 5.85977
2010-04-22 08:06:42 51°31.37 2°52.687 8.3007 3.462189 32.790101 5.999067
2010-04-22 08:07:42 51°31.374 2°52.688 8.2976 3.463243 32.79964 6.416955
2010-04-22 08:08:42 51°31.379 2°52.688 8.2998 3.463454 32.801858 6.521427
2010-04-22 08:09:42 51°31.38 2°52.682 8.304 3.461029 32.776358 6.103539
2010-04-22 08:10:42 51°31.38 2°52.675 8.3012 3.460818 32.77414 5.616002
2010-04-22 08:11:42 51°31.381 2°52.671 8.3087 3.459764 32.757643 5.720474
2010-04-22 08:12:42 51°31.382 2°52.669 8.3087 3.458183 32.738701 5.616002
2010-04-22 08:13:42 51°31.383 2°52.668 8.313 3.458499 32.744343 5.372234
2010-04-22 08:14:42 51°31.383 2°52.67 8.3048 3.460607 32.765737 5.85977
2010-04-22 08:15:42 51°31.382 2°52.669 8.2969 3.462611 32.789119 6.556251
2010-04-22 08:16:42 51°31.381 2°52.67 8.2936 3.465035 32.820039 6.765196
2010-04-22 08:17:42 51°31.381 2°52.67 8.3039 3.465984 32.832344 6.939316
2010-04-22 08:18:42 51°31.383 2°52.671 8.302 3.462083 32.78667 6.416955
2010-04-22 08:19:42 51°31.383 2°52.672 8.3095 3.459132 32.751766 6.033891
2010-04-22 08:20:42 51°31.382 2°52.672 8.3123 3.458077 32.736048 5.790122
2010-04-22 08:21:42 51°31.381 2°52.671 8.3153 3.459659 32.750353 5.755298
2010-04-22 08:22:42 51°31.382 2°52.671 8.3167 3.459975 32.752132 5.85977
2010-04-22 08:23:42 51°31.381 2°52.673 8.3163 3.460607 32.758008 6.208011
2010-04-22 08:24:42 51°31.382 2°52.672 8.3207 3.461556 32.768755 6.138363
2010-04-22 08:25:42 51°31.381 2°52.674 8.316 3.46124 32.763112 5.999067
2010-04-22 08:26:42 51°31.382 2°52.675 8.3177 3.461978 32.769323 6.208011
2010-04-22 08:27:42 51°31.381 2°52.677 8.323 3.460607 32.7526 6.068715
2010-04-22 08:28:42 51°31.381 2°52.677 8.3215 3.460396 32.749612 5.929418
2010-04-22 08:29:42 51°31.38 2°52.678 8.3218 3.46124 32.759248 6.138363
2010-04-22 08:30:42 51°31.379 2°52.679 8.328 3.459342 32.738533 6.068715
2010-04-22 08:31:42 51°31.377 2°52.68 8.328 3.46124 32.756158 5.894594
2010-04-22 08:32:42 51°31.376 2°52.681 8.3286 3.457339 32.712856 5.128465
2010-04-22 08:33:42 51°31.376 2°52.68 8.3316 3.460186 32.738903 5.302586
2010-04-22 08:34:42 51°31.377 2°52.68 8.3256 3.460923 32.745113 5.755298
2010-04-22 08:35:42 51°31.38 2°52.679 8.3274 3.461767 32.757063 6.382131
2010-04-22 08:36:42 51°31.382 2°52.679 8.3297 3.460186 32.741219 5.824946
2010-04-22 08:37:42 51°31.382 2°52.676 8.3374 3.459764 32.732158 5.441882
2010-04-22 08:38:42 51°31.382 2°52.673 8.3394 3.458604 32.716119 5.058817
2010-04-22 08:39:42 51°31.381 2°52.671 8.3431 3.457444 32.698544 4.884697
2010-04-22 08:40:42 51°31.381 2°52.67 8.3481 3.457972 32.706392 5.093641
2010-04-22 08:41:42 51°31.383 2°52.669 8.3404 3.458815 32.715249 5.128465
2010-04-22 08:42:42 51°31.383 2°52.671 8.3466 3.456496 32.690121 5.372234
2010-04-22 08:43:42 51°31.383 2°52.672 8.3453 3.45892 32.717899 5.232937
2010-04-22 08:44:42 51°31.374 2°52.665 8.3446 3.45892 32.716357 5.128465
2010-04-22 08:45:42 51°31.36 2°52.653 8.3417 3.459658 32.720252 5.267761
2010-04-22 08:46:42 51°31.35 2°52.644 8.339 3.457972 32.707934 5.68565
2010-04-22 08:47:42 51°31.344 2°52.641 8.3374 3.457972 32.708705 5.964243
2010-04-22 08:48:42 51°31.317 2°52.661 8.337 3.459237 32.722763 5.894594
2010-04-22 08:49:42 51°31.344 2°52.829 8.3341 3.460607 32.744106 5.929418
2010-04-22 08:50:42 51°31.515 2°53.064 8.3534 3.458815 32.719105 4.780225
2010-04-22 08:51:42 51°31.701 2°53.325 8.3442 3.456601 32.685836 5.267761
2010-04-22 08:53:39 51°32.061 2°53.84 8.3386 3.444056 32.562594 3.735503
2010-04-22 08:55:35 51°32.419 2°54.356 8.3311 3.445743 32.58798 3.317614
2010-04-22 08:56:35 51°32.607 2°54.618 8.3264 3.453966 32.673564 4.188216
2010-04-22 08:57:35 51°32.823 2°54.815 8.3367 3.453439 32.669568 3.456911
2010-04-22 08:58:35 51°33.038 2°55.012 8.3178 3.451435 32.637757 3.317614
2010-04-22 08:59:35 51°33.239 2°55.223 8.2344 3.462505 32.795749 6.382131
2010-04-22 09:00:35 51°33.302 2°55.465 8.1858 3.474735 32.994512 9.272528
2010-04-22 09:01:35 51°33.277 2°55.635 8.2053 3.469991 32.967884 8.889463
2010-04-22 09:02:35 51°33.239 2°55.718 8.2052 3.468199 32.939614 8.053686
2010-04-22 09:03:35 51°33.222 2°55.776 8.2462 3.462717 32.874016 6.765196
2010-04-22 09:04:35 51°33.212 2°55.821 8.2682 3.459554 32.807294 4.989169
2010-04-22 09:05:35 51°33.208 2°55.859 8.2696 3.455969 32.750201 4.431984
2010-04-22 09:06:35 51°33.207 2°55.891 8.2717 3.455442 32.746201 5.023993
2010-04-22 09:07:35 51°33.208 2°55.919 8.2832 3.455548 32.748084 5.267761
2010-04-22 09:08:35 51°33.21 2°55.945 8.2909 3.451436 32.687065 4.362336
2010-04-22 09:09:35 51°33.213 2°55.967 8.3193 3.449644 32.66051 4.118568
2010-04-22 09:10:35 51°33.216 2°55.989 8.3385 3.446586 32.608367 3.491735
2010-04-22 09:11:35 51°33.22 2°56.01 8.3527 3.442791 32.547014 2.76043
2010-04-22 09:12:35 51°33.224 2°56.029 8.3713 3.442053 32.527005 2.447013
2010-04-22 09:13:35 51°33.228 2°56.047 8.3705 3.438785 32.4736 2.098773
2010-04-22 09:14:35 51°33.234 2°56.063 8.3542 3.44258 32.522575 2.795254
2010-04-22 09:15:35 51°33.239 2°56.079 8.3527 3.445005 32.554906 3.10867
2010-04-22 09:16:35 51°33.241 2°56.096 8.3507 3.445426 32.55933 3.317614
2010-04-22 09:17:35 51°33.227 2°56.151 8.3465 3.447113 32.582399 3.596207
2010-04-22 09:18:35 51°33.219 2°56.24 8.3714 3.448695 32.60975 3.909623
2010-04-22 09:19:35 51°33.219 2°56.312 8.4171 3.444056 32.525799 2.272893
2010-04-22 09:20:35 51°33.223 2°56.372 8.4326 3.436676 32.414111 1.332643
2010-04-22 09:21:35 51°33.229 2°56.423 8.4514 3.436043 32.392258 0.984403
2010-04-22 09:22:35 51°33.235 2°56.466 8.4604 3.436359 32.383392 0.845107
2010-04-22 09:23:35 51°33.24 2°56.503 8.4571 3.435938 32.366817 0.810283
2010-04-22 09:24:35 51°33.244 2°56.535 8.4168 3.4391 32.411304 1.402292
2010-04-22 09:25:35 51°33.249 2°56.564 8.3941 3.44279 32.483481 2.551485
2010-04-22 09:26:35 51°33.254 2°56.59 8.3517 3.449221 32.581498 3.770327
2010-04-22 09:27:35 51°33.261 2°56.614 8.3368 3.449749 32.613899 4.849873
2010-04-22 09:28:35 51°33.27 2°56.636 8.3463 3.450487 32.636257 5.267761
2010-04-22 09:29:35 51°33.281 2°56.657 8.3616 3.449749 32.616974 4.606104
2010-04-22 09:30:35 51°33.292 2°56.677 8.3804 3.445532 32.555068 4.014096
2010-04-22 09:31:35 51°33.302 2°56.697 8.4018 3.443001 32.515512 3.352439
2010-04-22 09:32:35 51°33.314 2°56.715 8.4085 3.435095 32.412797 2.481837
2010-04-22 09:33:35 51°33.324 2°56.729 8.411 3.435516 32.411115 2.586309
2010-04-22 09:34:35 51°33.334 2°56.735 8.4285 3.433935 32.390747 2.447013
2010-04-22 09:35:35 51°33.343 2°56.735 8.4078 3.430983 32.349195 2.307717
2010-04-22 09:36:35 51°33.351 2°56.736 8.384 3.436992 32.434199 3.10867
2010-04-22 09:37:35 51°33.361 2°56.741 8.4071 3.439628 32.471739 2.969374
2010-04-22 09:38:35 51°33.37 2°56.748 8.4225 3.434673 32.403807 2.377365
2010-04-22 09:39:35 51°33.378 2°56.76 8.4614 3.432986 32.370157 2.063949
2010-04-22 09:40:35 51°33.387 2°56.773 8.4767 3.428769 32.288083 1.262995
2010-04-22 09:41:35 51°33.394 2°56.787 8.4724 3.429507 32.290489 1.262995
2010-04-22 09:42:35 51°33.401 2°56.802 8.4733 3.428031 32.276582 1.332643
2010-04-22 09:43:35 51°33.409 2°56.818 8.4642 3.429612 32.298414 1.680884
2010-04-22 09:44:35 51°33.417 2°56.835 8.4532 3.43014 32.312268 1.889828
2010-04-22 09:45:35 51°33.425 2°56.851 8.4362 3.430561 32.322749 2.203245
2010-04-22 09:46:35 51°33.434 2°56.865 8.4377 3.430456 32.33 2.412189
2010-04-22 09:47:35 51°33.441 2°56.872 8.4638 3.432037 32.342742 2.307717
2010-04-22 09:48:35 51°33.45 2°56.874 8.4519 3.429823 32.302893 1.82018
2010-04-22 09:49:35 51°33.459 2°56.879 8.4268 3.432459 32.347913 2.412189
2010-04-22 09:50:35 51°33.467 2°56.886 8.4311 3.434146 32.37925 2.516661
2010-04-22 09:51:35 51°33.474 2°56.895 8.4303 3.434568 32.386708 2.481837
2010-04-22 09:52:35 51°33.48 2°56.906 8.449 3.433408 32.370005 2.307717
2010-04-22 09:53:35 51°33.484 2°56.92 8.4685 3.432037 32.335905 1.64606
2010-04-22 09:54:35 51°33.49 2°56.929 8.4761 3.432142 32.321067 1.576412
2010-04-22 09:55:35 51°33.499 2°56.934 8.481 3.432248 32.3161 1.541588
2010-04-22 09:56:35 51°33.51 2°56.937 8.4553 3.433618 32.335735 1.959476
2010-04-22 09:57:35 51°33.519 2°56.943 8.4437 3.435411 32.369666 2.551485
2010-04-22 09:58:35 51°33.526 2°56.95 8.4456 3.436676 32.390504 2.725606
2010-04-22 09:59:35 51°33.533 2°56.959 8.4493 3.437203 32.396019 2.830078
2010-04-22 10:00:35 51°33.539 2°56.97 8.4637 3.436148 32.378144 2.586309
2010-04-22 10:01:35 51°33.544 2°56.982 8.4674 3.436465 32.372329 2.516661
2010-04-22 10:02:35 51°33.55 2°56.996 8.4706 3.437097 32.378943 2.795254
2010-04-22 10:03:35 51°33.554 2°57.01 8.5069 3.436781 32.364997 2.621133
2010-04-22 10:04:35 51°33.557 2°57.024 8.5346 3.43657 32.330167 2.029124
2010-04-22 10:05:35 51°33.56 2°57.036 8.5636 3.435937 32.300845 1.506764
2010-04-22 10:06:35 51°33.563 2°57.05 8.5925 3.437623 32.29046 1.193347
2010-04-22 10:07:35 51°33.565 2°57.064 8.5989 3.438255 32.273641 1.054051
2010-04-22 10:08:35 51°33.564 2°57.076 8.6299 3.438466 32.263013 0.845107
2010-04-22 10:09:35 51°33.565 2°57.089 8.6416 3.439309 32.253704 0.740634
2010-04-22 10:10:35 51°33.545 2°57.11 8.5728 3.439098 32.234944 0.636162
2010-04-22 10:11:35 51°33.453 2°57.043 8.461 3.447638 32.4359 2.795254
2010-04-22 10:12:35 51°33.317 2°56.867 8.4435 3.445952 32.462414 2.133597
2010-04-22 10:13:35 51°33.195 2°56.642 8.4259 3.445215 32.483672 2.516661
2010-04-22 10:14:35 51°33.116 2°56.47 8.4045 3.442263 32.473379 2.238069
2010-04-22 10:15:35 51°33.081 2°56.377 8.4072 3.439944 32.450617 1.785356
2010-04-22 10:16:35 51°33.071 2°56.31 8.4439 3.439944 32.450617 1.715708
2010-04-22 10:17:35 51°33.071 2°56.273 8.4542 3.440365 32.429871 1.611236
2010-04-22 10:18:39 51°33.073 2°56.362 8.4427 3.413695 32.138878 1.750532
2010-04-22 10:19:38 51°33.065 2°56.495 8.4278 3.441103 32.432259 2.342541
2010-04-22 10:20:36 51°33.054 2°56.584 8.4447 3.442052 32.455909 2.481837
2010-04-22 10:21:35 51°33.041 2°56.646 8.4528 3.438679 32.409176 2.272893
2010-04-22 10:22:35 51°33.029 2°56.692 8.4354 3.436465 32.385255 2.377365
2010-04-22 10:23:35 51°33.02 2°56.732 8.4268 3.436887 32.401083 2.655957
2010-04-22 10:24:35 51°33.015 2°56.768 8.4319 3.434884 32.386973 2.899726
2010-04-22 10:25:35 51°33.013 2°56.801 8.4083 3.435622 32.400789 3.178318
2010-04-22 10:26:35 51°33.013 2°56.831 8.4033 3.437309 32.42912 3.491735
2010-04-22 10:27:35 51°33.017 2°56.856 8.3904 3.438257 32.449741 3.805151
2010-04-22 10:28:35 51°33.023 2°56.877 8.3819 3.439839 32.473948 3.979271
2010-04-22 10:29:35 51°33.027 2°56.896 8.3802 3.440471 32.488223 4.22304
2010-04-22 10:30:35 51°33.033 2°56.91 8.3769 3.440788 32.495363 4.362336
2010-04-22 10:31:35 51°33.038 2°56.922 8.3757 3.44005 32.491451 4.327512
2010-04-22 10:32:35 51°33.042 2°56.929 8.378 3.439839 32.49077 4.466808
2010-04-22 10:33:35 51°33.045 2°56.935 8.415 3.43889 32.474705 4.327512
2010-04-22 10:34:35 51°33.047 2°56.94 8.4448 3.430035 32.345348 3.631031
2010-04-22 10:35:35 51°33.048 2°56.945 8.4561 3.428137 32.304223 3.422087
2010-04-22 10:36:35 51°33.047 2°56.948 8.4806 3.42761 32.28051 3.28279
2010-04-22 10:37:35 51°33.047 2°56.949 8.5241 3.42782 32.266048 3.10867
2010-04-22 10:38:35 51°33.047 2°56.947 8.5834 3.42413 32.180691 2.447013
2010-04-22 10:39:35 51°33.047 2°56.944 8.608 3.420967 32.109347 1.959476
2010-04-22 10:40:35 51°33.044 2°56.929 8.6595 3.421494 32.080315 1.541588
2010-04-22 10:41:35 51°33.03 2°56.792 8.6494 3.423812 32.06025 1.088875
2010-04-22 10:42:35 51°33.012 2°56.563 8.5162 3.426659 32.128813 1.193347
2010-04-22 10:43:35 51°33.011 2°56.307 8.4945 3.428241 32.238682 1.193347
2010-04-22 10:44:35 51°33.051 2°56.063 8.4739 3.429718 32.27527 1.193347
2010-04-22 10:45:35 51°33.069 2°55.913 8.5476 3.436148 32.363703 1.193347
2010-04-22 10:46:35 51°33.061 2°55.873 8.7397 3.440891 32.307147 0.392394
2010-04-22 10:47:35 51°33.056 2°55.861 8.6921 3.453645 32.310172 0.392394
2010-04-22 10:48:35 51°33.048 2°55.854 8.6335 3.458073 32.410508 1.506764
2010-04-22 10:49:35 51°33.041 2°55.85 8.6241 3.459339 32.466851 1.959476
2010-04-22 10:50:35 51°33.034 2°55.849 8.6105 3.459128 32.46162 1.785356
2010-04-22 10:51:35 51°33.022 2°55.86 8.6593 3.460182 32.48247 1.959476
2010-04-22 10:52:35 51°33.013 2°55.881 8.7547 3.461763 32.442852 1.228171
2010-04-22 10:53:35 51°33.014 2°55.909 8.7637 3.465663 32.407859 0.70581
2010-04-22 10:54:35 51°33.023 2°55.934 8.686 3.466506 32.445302 0.949579
2010-04-22 10:55:35 51°33.038 2°55.952 8.6127 3.461025 32.438956 1.019227
2010-04-22 10:56:35 51°33.058 2°55.964 8.5267 3.45839 32.470621 1.576412
2010-04-22 10:57:35 51°33.079 2°55.97 8.5271 3.456177 32.525105 2.203245
2010-04-22 10:58:35 51°33.099 2°55.963 8.4773 3.454385 32.514763 2.238069
2010-04-22 10:59:35 51°33.112 2°55.944 8.4569 3.453753 32.546307 2.795254
2010-04-22 11:00:49 51°33.121 2°55.908 8.5051 3.451856 32.52569 2.864902
2010-04-22 11:02:46 51°33.143 2°55.851 8.6069 3.457758 32.478453 2.168421
2010-04-22 11:03:46 51°33.159 2°55.839 8.6482 3.459655 32.467113 1.750532
2010-04-22 11:04:46 51°33.173 2°55.843 8.6274 3.46208 32.476445 1.576412
2010-04-22 11:05:46 51°33.179 2°55.855 8.6098 3.463556 32.505481 1.959476
2010-04-22 11:06:46 51°33.18 2°55.865 8.5798 3.464505 32.545021 2.621133
2010-04-22 11:07:46 51°33.178 2°55.872 8.5544 3.463767 32.554072 2.969374
2010-04-22 11:08:46 51°33.176 2°55.878 8.5385 3.461975 32.560513 3.213142
2010-04-22 11:09:46 51°33.172 2°55.882 8.5342 3.461343 32.564584 3.352439
2010-04-22 11:10:46 51°33.168 2°55.884 8.5526 3.460394 32.559249 3.10867
2010-04-22 11:11:46 51°33.164 2°55.885 8.6124 3.461554 32.546201 2.795254
2010-04-22 11:12:46 51°33.16 2°55.885 8.6519 3.462291 32.50065 2.203245
2010-04-22 11:13:46 51°33.155 2°55.884 8.6989 3.463028 32.468891 1.82018
2010-04-22 11:14:46 51°33.15 2°55.883 8.7142 3.465031 32.453394 1.611236
2010-04-22 11:15:46 51°33.145 2°55.881 8.7252 3.465452 32.445681 1.64606
2010-04-22 11:16:46 51°33.14 2°55.879 8.7411 3.46851 32.469901 1.680884
2010-04-22 11:17:46 51°33.133 2°55.875 8.7483 3.470196 32.471553 1.506764
2010-04-22 11:18:46 51°33.126 2°55.871 8.7508 3.469458 32.460107 1.611236
2010-04-22 11:19:46 51°33.119 2°55.865 8.7566 3.469247 32.45414 1.541588
2010-04-22 11:20:46 51°33.112 2°55.86 8.7618 3.470407 32.460898 1.576412
2010-04-22 11:21:46 51°33.103 2°55.853 8.7623 3.471039 32.46369 1.680884
2010-04-22 11:22:46 51°33.095 2°55.844 8.7738 3.47125 32.462859 1.64606
2010-04-22 11:23:46 51°33.087 2°55.835 8.7845 3.471145 32.450441 1.506764
2010-04-22 11:24:46 51°33.078 2°55.824 8.7983 3.470301 32.431882 1.541588
2010-04-22 11:25:46 51°33.07 2°55.815 8.8122 3.473253 32.445923 1.402292
2010-04-22 11:26:46 51°33.062 2°55.805 8.8135 3.475783 32.46312 1.332643
2010-04-22 11:27:46 51°33.053 2°55.797 8.7796 3.473042 32.439967 1.437116
2010-04-22 11:28:46 51°33.044 2°55.788 8.7542 3.47125 32.447763 1.611236
2010-04-22 11:29:46 51°33.035 2°55.779 8.7623 3.473991 32.495105 1.611236
2010-04-22 11:30:46 51°33.026 2°55.802 8.7585 3.474518 32.499824 1.506764
2010-04-22 11:31:46 51°33.041 2°55.839 8.628 3.474624 32.52665 1.680884
2010-04-22 11:32:46 51°33.123 2°55.873 8.5786 3.468511 32.576908 2.481837
2010-04-22 11:33:46 51°33.248 2°55.889 8.7021 3.463662 32.538507 1.750532
2010-04-22 11:34:46 51°33.305 2°55.865 8.6913 3.465664 32.483443 0.845107
2010-04-22 11:35:46 51°33.327 2°55.831 8.6896 3.467139 32.476079 0.670986
2010-04-22 11:36:46 51°33.34 2°55.801 8.5983 3.468089 32.522336 1.297819
2010-04-22 11:37:46 51°33.343 2°55.78 8.5438 3.465876 32.566933 2.029124
2010-04-22 11:38:46 51°33.341 2°55.766 8.5493 3.46303 32.573048 2.481837
2010-04-22 11:39:46 51°33.331 2°55.763 8.5111 3.461554 32.556109 2.899726
2010-04-22 11:40:46 51°33.321 2°55.765 8.4599 3.462398 32.606153 3.839975
2010-04-22 11:41:46 51°33.312 2°55.766 8.4365 3.45797 32.598083 4.431984
2010-04-22 11:42:46 51°33.302 2°55.766 8.4226 3.457865 32.618427 4.710577
2010-04-22 11:43:46 51°33.294 2°55.765 8.4243 3.458392 32.637753 4.815049
2010-04-22 11:44:46 51°33.285 2°55.763 8.4308 3.458392 32.631616 4.675753
2010-04-22 11:45:46 51°33.275 2°55.761 8.434 3.458498 32.631186 4.710577
2010-04-22 11:46:46 51°33.266 2°55.756 8.4221 3.458076 32.629836 4.710577
2010-04-22 11:47:46 51°33.258 2°55.751 8.4289 3.457865 32.631463 4.745401
2010-04-22 11:48:46 51°33.25 2°55.746 8.4325 3.457654 32.624651 4.57128
2010-04-22 11:49:46 51°33.24 2°55.74 8.4314 3.457865 32.623793 4.536456
2010-04-22 11:50:46 51°33.231 2°55.735 8.4478 3.457654 32.620818 4.606104
2010-04-22 11:51:46 51°33.222 2°55.728 8.4752 3.45797 32.604974 4.257864
2010-04-22 11:52:46 51°33.212 2°55.721 8.4808 3.459762 32.604593 3.979271
2010-04-22 11:53:46 51°33.207 2°55.721 8.4664 3.460395 32.604324 4.04892
2010-04-22 11:54:46 51°33.205 2°55.724 8.4318 3.459024 32.609118 4.57128
2010-04-22 11:55:46 51°33.184 2°55.671 8.4328 3.457338 32.622872 4.780225
2010-04-22 11:56:46 51°33.216 2°55.592 8.7348 3.458497 32.60896 3.631031
2010-04-22 11:57:46 51°33.268 2°55.621 8.8232 3.475678 32.551255 0.984403
2010-04-22 11:58:46 51°33.29 2°55.67 8.7987 3.485693 32.571219 1.054051
2010-04-22 11:59:46 51°33.302 2°55.715 8.7024 3.484217 32.594524 1.297819
2010-04-22 12:00:46 51°33.309 2°55.749 8.6871 3.479685 32.621045 1.47194
2010-04-22 12:01:46 51°33.315 2°55.776 8.7272 3.479158 32.607953 1.367467
2010-04-22 12:02:46 51°33.318 2°55.794 8.7425 3.481266 32.596464 1.158523
2010-04-22 12:03:46 51°33.329 2°55.816 8.6732 3.481055 32.603382 1.47194
2010-04-22 12:04:46 51°33.35 2°55.86 8.675 3.476628 32.596819 1.611236
2010-04-22 12:05:46 51°33.368 2°55.909 8.6446 3.476417 32.604511 1.541588
2010-04-22 12:06:46 51°33.378 2°55.95 8.6392 3.474098 32.602418 1.64606
2010-04-22 12:07:46 51°33.382 2°55.979 8.7861 3.47336 32.583314 1.506764
2010-04-22 12:08:46 51°33.382 2°55.998 8.8445 3.481792 32.538301 1.019227
2010-04-22 12:09:46 51°33.378 2°56.011 8.7702 3.486747 32.564005 1.054051
2010-04-22 12:10:46 51°33.371 2°56.018 8.6761 3.482531 32.594439 1.715708
2010-04-22 12:11:46 51°33.363 2°56.022 8.6177 3.476839 32.611947 2.621133
2010-04-22 12:12:46 51°33.353 2°56.038 8.5927 3.472306 32.625647 3.422087
2010-04-22 12:13:46 51°33.334 2°56.059 8.6809 3.472201 32.610058 2.969374
2010-04-22 12:14:46 51°33.303 2°56.072 8.5769 3.475784 32.59488 3.073846
2010-04-22 12:15:46 51°33.267 2°56.076 8.5905 3.470304 32.632984 3.352439
2010-04-22 12:16:46 51°33.237 2°56.093 8.7367 3.473255 32.599719 2.516661
2010-04-22 12:17:46 51°33.218 2°56.12 8.7264 3.479895 32.587525 2.063949
2010-04-22 12:18:46 51°33.204 2°56.139 8.7138 3.479263 32.577911 1.680884
2010-04-22 12:19:46 51°33.191 2°56.151 8.7409 3.478419 32.576728 1.82018
2010-04-22 12:20:46 51°33.177 2°56.158 8.8078 3.480211 32.567299 1.64606
2010-04-22 12:21:46 51°33.163 2°56.162 8.7762 3.484849 32.559441 1.541588
2010-04-22 12:22:46 51°33.149 2°56.162 8.6654 3.482425 32.582725 2.238069
2010-04-22 12:23:46 51°33.133 2°56.161 8.616 3.475468 32.597671 3.004198
2010-04-22 12:24:46 51°33.117 2°56.157 8.5868 3.471673 32.596941 3.526559
2010-04-22 12:25:46 51°33.1 2°56.151 8.5826 3.469671 32.601197 3.770327
2010-04-22 12:26:46 51°33.084 2°56.144 8.589 3.469565 32.603147 3.839975
2010-04-22 12:27:46 51°33.066 2°56.136 8.6073 3.469776 32.595437 3.665855
2010-04-22 12:28:46 51°33.05 2°56.128 8.677 3.471041 32.591108 3.28279
2010-04-22 12:29:46 51°33.032 2°56.118 8.7206 3.47589 32.582295 2.621133
2010-04-22 12:30:46 51°33.015 2°56.107 8.7443 3.479474 32.579345 2.272893
2010-04-22 12:31:46 51°32.996 2°56.096 8.7671 3.481055 32.577581 2.272893
2010-04-22 12:32:46 51°32.977 2°56.085 8.8129 3.483795 32.57726 1.889828
2010-04-22 12:33:46 51°32.959 2°56.074 8.8639 3.487379 32.569053 1.576412
2010-04-22 12:34:46 51°32.944 2°56.08 8.8986 3.490963 32.570698 1.402292
2010-04-22 12:35:46 51°32.946 2°56.091 8.8266 3.493388 32.573167 1.123699
2010-04-22 12:36:46 51°33.019 2°56.079 8.757 3.486009 32.589644 1.541588
2010-04-22 12:37:46 51°33.169 2°56.043 8.6734 3.48232 32.571778 1.47194
2010-04-22 12:38:46 51°33.334 2°56.118 8.6063 3.475574 32.608662 1.9943
2010-04-22 12:39:46 51°33.477 2°56.113 8.6522 3.472095 32.606672 1.785356
2010-04-22 12:40:46 51°33.536 2°56.088 8.6017 3.475679 32.601389 1.785356
2010-04-22 12:41:46 51°33.565 2°56.079 8.614 3.47199 32.618533 2.342541
2010-04-22 12:42:46 51°33.579 2°56.075 8.6822 3.473993 32.604365 1.924652
2010-04-22 12:43:46 51°33.584 2°56.072 8.6361 3.477998 32.608808 1.959476
2010-04-22 12:44:46 51°33.584 2°56.067 8.6457 3.475258 32.619074 2.238069
2010-04-22 12:45:46 51°33.579 2°56.061 8.663 3.476628 32.613556 2.029124
2010-04-22 12:46:46 51°33.572 2°56.052 8.6266 3.477366 32.616677 2.238069
2010-04-22 12:47:46 51°33.563 2°56.041 8.5684 3.474414 32.630861 3.073846
2010-04-22 12:48:46 51°33.553 2°56.03 8.5292 3.470409 32.635613 3.909623
2010-04-22 12:49:46 51°33.54 2°56.017 8.5075 3.46693 32.632898 4.292688
2010-04-22 12:50:46 51°33.525 2°56.004 8.5035 3.465244 32.632093 4.710577
2010-04-22 12:51:46 51°33.509 2°55.989 8.4973 3.465138 32.633286 4.815049
2010-04-22 12:52:46 51°33.491 2°55.973 8.4825 3.464612 32.640786 5.128465
2010-04-22 12:53:46 51°33.474 2°55.955 8.511 3.463136 32.62305 4.710577
2010-04-22 12:54:46 51°33.455 2°55.937 8.5252 3.465138 32.6264 4.014096
2010-04-22 12:55:46 51°33.435 2°55.917 8.5178 3.466614 32.629592 3.700679
2010-04-22 12:56:46 51°33.416 2°55.897 8.5069 3.465876 32.627996 3.735503
2010-04-22 12:57:46 51°33.396 2°55.877 8.5003 3.465033 32.631418 3.805151
2010-04-22 12:58:46 51°33.376 2°55.857 8.5102 3.465033 32.634479 3.874799
2010-04-22 12:59:46 51°33.356 2°55.837 8.5181 3.465771 32.633014 3.700679
2010-04-22 13:00:46 51°33.337 2°55.817 8.5419 3.465982 32.631393 3.700679
2010-04-22 13:01:46 51°33.316 2°55.798 8.6303 3.46809 32.624377 3.213142
2010-04-22 13:02:46 51°33.295 2°55.78 8.6751 3.475574 32.613992 2.203245
2010-04-22 13:03:46 51°33.261 2°55.836 8.6863 3.478631 32.625287 2.063949
2010-04-22 13:04:46 51°33.247 2°55.985 8.8711 3.48232 32.599076 1.402292
2010-04-22 13:05:46 51°33.261 2°56.202 8.7667 3.489488 32.573532 1.088875
2010-04-22 13:06:46 51°33.302 2°56.421 8.7151 3.482425 32.608523 1.367467
2010-04-22 13:07:46 51°33.353 2°56.544 8.9661 3.480106 32.560899 1.088875
2010-04-22 13:08:46 51°33.39 2°56.569 9.0368 3.496233 32.522781 0.427218
2010-04-22 13:09:46 51°33.411 2°56.563 9.0271 3.502453 32.542693 0.392394
2010-04-22 13:10:46 51°33.421 2°56.549 9.0253 3.50161 32.548258 0.462042
2010-04-22 13:11:46 51°33.422 2°56.531 9.01 3.501715 32.541834 0.427218
2010-04-22 13:12:46 51°33.417 2°56.512 8.969 3.500556 32.553905 0.496866
2010-04-22 13:13:46 51°33.408 2°56.493 8.8175 3.497604 32.565539 0.845107
2010-04-22 13:14:46 51°33.397 2°56.474 8.7366 3.486958 32.576024 1.889828
2010-04-22 13:15:46 51°33.383 2°56.453 8.6893 3.479263 32.579429 2.690782
2010-04-22 13:16:46 51°33.366 2°56.433 8.695 3.475679 32.577061 3.039022
2010-04-22 13:17:46 51°33.348 2°56.413 8.711 3.475995 32.57048 3.073846
2010-04-22 13:18:46 51°33.328 2°56.393 8.6766 3.477365 32.574111 3.178318
2010-04-22 13:19:46 51°33.308 2°56.372 8.5908 3.474203 32.5921 3.839975
2010-04-22 13:20:46 51°33.285 2°56.352 8.5445 3.468617 32.602398 4.431984
2010-04-22 13:21:46 51°33.261 2°56.333 8.5417 3.465665 32.601339 4.466808
2010-04-22 13:22:46 51°33.236 2°56.312 8.5913 3.464505 32.570919 3.944447
2010-04-22 13:23:46 51°33.21 2°56.29 8.6166 3.468722 32.584439 3.944447
2010-04-22 13:24:46 51°33.183 2°56.266 8.637 3.470514 32.584089 3.665855
2010-04-22 13:25:46 51°33.156 2°56.24 8.6593 3.471462 32.581039 3.143494
2010-04-22 13:26:46 51°33.131 2°56.212 8.6472 3.473676 32.581285 2.725606
2010-04-22 13:27:46 51°33.105 2°56.184 8.6281 3.472727 32.582809 2.899726
2010-04-22 13:28:46 51°33.08 2°56.156 8.6147 3.47083 32.586625 3.073846
2010-04-22 13:29:46 51°33.058 2°56.128 8.6217 3.469881 32.581301 2.864902
2010-04-22 13:30:46 51°33.035 2°56.102 8.6464 3.470514 32.579521 2.586309
2010-04-22 13:31:46 51°33.012 2°56.08 8.644 3.471884 32.577065 2.447013
2010-04-22 13:32:46 51°32.988 2°56.103 8.7314 3.472095 32.583827 2.551485
2010-04-22 13:33:46 51°32.975 2°56.136 8.8768 3.479157 32.561648 1.750532
2010-04-22 13:34:46 51°32.968 2°56.166 8.9265 3.490014 32.554826 1.193347
2010-04-22 13:35:46 51°32.965 2°56.195 9.0224 3.496339 32.554714 0.810283
2010-04-22 13:36:46 51°32.968 2°56.221 9.075 3.503718 32.550493 0.496866
2010-04-22 13:37:46 51°32.972 2°56.243 9.109 3.507935 32.556466 0.392394
2010-04-22 13:38:46 51°32.979 2°56.262 9.072 3.510254 32.558626 0.322746
2010-04-22 13:39:46 51°32.988 2°56.273 9.0692 3.507197 32.564614 0.427218
2010-04-22 13:40:46 51°33.008 2°56.279 9.0757 3.506986 32.557936 0.392394
2010-04-22 13:41:46 51°33.042 2°56.272 9.1211 3.507619 32.556206 0.35757
2010-04-22 13:42:46 51°33.135 2°56.18 9.1562 3.510992 32.549745 0.218274
2010-04-22 13:43:46 51°33.236 2°55.956 8.841 3.513943 32.547199 0.218274
2010-04-22 13:44:46 51°33.284 2°55.612 8.6854 3.491069 32.619447 1.437116
2010-04-22 13:45:46 51°33.304 2°55.248 8.6518 3.478104 32.628171 1.959476
2010-04-22 13:46:46 51°33.273 2°54.879 8.8351 3.484428 32.617201 1.019227
2010-04-22 13:47:46 51°33.08 2°54.701 9.053 3.501506 32.682246 0.984403
2010-04-22 13:48:46 51°32.845 2°54.638 8.7802 3.518268 32.715022 0.879931
2010-04-22 13:49:46 51°32.609 2°54.583 8.681 3.495919 32.700163 1.054051
2010-04-22 13:50:46 51°32.364 2°54.527 8.6833 3.481477 32.667895 1.82018
2010-04-22 13:51:46 51°32.115 2°54.468 8.5258 3.480107 32.627719 2.864902
2010-04-22 13:52:46 51°31.865 2°54.412 8.6213 3.471991 32.668187 4.188216
2010-04-22 13:53:46 51°31.617 2°54.358 8.5523 3.477366 32.651729 3.770327
2010-04-22 13:54:46 51°31.368 2°54.3 8.5367 3.47568 32.690666 4.849873
2010-04-22 13:55:46 51°31.118 2°54.244 8.5422 3.473361 32.696293 4.884697
2010-04-22 13:56:46 51°30.868 2°54.192 8.5378 3.473256 32.691361 5.058817
2010-04-22 13:57:46 51°30.619 2°54.135 8.5704 3.471674 32.664882 4.710577
2010-04-22 13:58:46 51°30.375 2°54.077 8.6526 3.471569 32.638555 4.640929
2010-04-22 13:59:46 51°30.141 2°54.004 8.7383 3.4722 32.549201 3.491735
2010-04-22 14:00:46 51°29.891 2°53.868 8.9339 3.474307 32.489319 2.899726
2010-04-22 14:01:46 51°29.659 2°53.7 9.0315 3.481263 32.388366 1.506764
2010-04-22 14:02:46 51°29.429 2°53.532 9.1332 3.48316 32.341426 1.262995
2010-04-22 14:03:46 51°29.213 2°53.321 9.108 3.486111 32.285483 1.402292
2010-04-22 14:04:46 51°28.978 2°53.18 9.2425 3.490644 32.306846 1.054051
2010-04-22 14:05:46 51°28.728 2°53.145 9.0936 3.498128 32.319926 0.984403
2010-04-22 14:06:46 51°28.48 2°53.123 8.9124 3.486744 32.379135 1.750532
2010-04-22 14:07:46 51°28.231 2°53.093 9.1487 3.473989 32.320697 1.262995
2010-04-22 14:08:46 51°27.981 2°53.063 9.1643 3.485899 32.225508 0.496866
2010-04-22 14:09:46 51°27.731 2°53.034 8.9629 3.475885 32.189961 0.566514
2010-04-22 14:10:46 51°27.481 2°53.006 9.0456 3.467242 32.251752 2.690782
2010-04-22 14:11:46 51°27.233 2°52.975 8.8898 3.467346 32.16656 1.9943
2010-04-22 14:12:46 51°26.983 2°52.94 8.8916 3.445421 32.099989 3.770327
2010-04-22 14:13:46 51°26.733 2°52.908 8.7237 3.442786 32.094315 6.277659
2010-04-22 14:14:46 51°26.483 2°52.873 8.803 3.432877 32.078147 7.14826
2010-04-22 14:15:46 51°26.231 2°52.833 8.7867 3.433931 32.045087 6.138363
2010-04-22 14:16:46 51°25.979 2°52.794 9.0017 3.429398 31.981796 3.073846
2010-04-22 14:17:46 51°25.729 2°52.755 9.094 3.438673 31.918512 1.64606
2010-04-22 14:18:46 51°25.478 2°52.713 9.2238 3.441729 31.874937 2.551485
2010-04-22 14:19:46 51°25.227 2°52.673 9.5438 3.451108 31.750628 0.636162
2010-04-22 14:20:46 51°24.979 2°52.638 9.4799 3.467024 31.724051 0.427218
2010-04-22 14:21:46 51°24.732 2°52.604 9.2271 3.446363 31.614059 1.680884
2010-04-22 14:22:46 51°24.484 2°52.58 9.2086 3.424017 31.566502 2.307717
2010-04-22 14:23:46 51°24.242 2°52.614 9.2038 3.420328 31.537442 3.387263
2010-04-22 14:24:46 51°23.997 2°52.657 9.0837 3.413265 31.484696 4.431984
2010-04-22 14:25:46 51°23.753 2°52.706 9.0358 3.401249 31.454164 6.556251
2010-04-22 14:26:46 51°23.509 2°52.745 9.0434 3.398298 31.476799 9.481472
2010-04-22 14:27:46 51°23.262 2°52.777 9.1868 3.390919 31.367716 7.740269
2010-04-22 14:28:46 51°23.014 2°52.811 9.4373 3.392815 31.242539 4.431984
2010-04-22 14:29:46 51°22.767 2°52.848 9.5576 3.402721 31.163104 3.874799
2010-04-22 14:30:46 51°22.518 2°52.846 9.5072 3.406725 31.082076 3.735503
2010-04-22 14:31:46 51°22.271 2°52.81 9.3033 3.400507 31.142746 7.183084
2010-04-22 14:32:46 51°22.028 2°52.766 9.3949 3.390706 31.173855 11.222675
2010-04-22 14:33:46 51°21.783 2°52.723 9.6379 3.386698 30.970081 6.382131
2010-04-22 14:34:46 51°21.54 2°52.686 9.5996 3.391335 30.909567 6.939316
2010-04-22 14:35:46 51°21.296 2°52.654 9.6459 3.389648 30.888322 8.750167
2010-04-22 14:36:46 51°21.05 2°52.621 9.615 3.393126 30.891984 11.01373
2010-04-22 14:37:46 51°20.803 2°52.586 9.6127 3.390913 30.908807 14.182719
2010-04-22 14:38:46 51°20.557 2°52.554 9.606 3.388278 30.875174 13.938951
2010-04-22 14:39:46 51°20.31 2°52.52 9.6813 3.385326 30.808363 10.735138
2010-04-22 14:40:46 51°20.062 2°52.486 9.6763 3.381215 30.737677 9.20288
2010-04-22 14:41:46 51°19.814 2°52.455 9.7131 3.375312 30.680267 10.212777
2010-04-22 14:42:46 51°19.566 2°52.419 9.6908 3.372571 30.626348 11.710211
2010-04-22 14:43:46 51°19.32 2°52.386 9.6844 3.367512 30.600291 18.048189
2010-04-22 14:44:46 51°19.074 2°52.352 9.6553 3.363717 30.577271 26.858675
2010-04-22 14:45:46 51°18.828 2°52.32 9.8242 3.359817 30.509692 31.838514
2010-04-22 14:46:46 51°18.581 2°52.292 9.8799 3.366034 30.460175 31.559922
2010-04-22 14:47:46 51°18.338 2°52.264 9.8613 3.365296 30.433605 24.212047
2010-04-22 14:48:46 51°18.09 2°52.237 9.8457 3.364664 30.407444 23.863806
2010-04-22 14:49:46 51°17.845 2°52.211 9.9254 3.360658 30.3919 15.157793
2010-04-22 14:50:46 51°17.599 2°52.194 9.9504 3.367298 30.392204 12.371868
2010-04-22 14:51:46 51°17.353 2°52.208 9.9265 3.36909 30.380155 10.247601
2010-04-22 14:52:46 51°17.114 2°52.292 9.9215 3.365823 30.384937 11.849508
2010-04-22 14:53:46 51°16.892 2°52.424 10.0205 3.362449 30.335535 11.77986
2010-04-22 14:54:46 51°16.683 2°52.61 10.0051 3.367824 30.318613 12.789757
2010-04-22 14:55:46 51°16.472 2°52.788 9.9979 3.365716 30.309778 16.132866
2010-04-22 14:56:46 51°16.265 2°52.968 10.0536 3.366349 30.314734 8.959111
2010-04-22 14:57:46 51°16.056 2°53.142 10.1646 3.370143 30.305162 6.6259
2010-04-22 14:58:46 51°15.854 2°53.333 10.1412 3.376677 30.289157 7.217908
2010-04-22 14:59:46 51°15.673 2°53.563 10.0899 3.374253 30.29068 4.57128
2010-04-22 15:00:46 51°15.502 2°53.804 10.0431 3.367402 30.288669 6.765196
2010-04-22 15:01:46 51°15.331 2°54.046 10.122 3.362553 30.234254 8.610871
2010-04-22 15:02:46 51°15.155 2°54.285 10.1545 3.364977 30.191666 12.406692
2010-04-22 15:03:46 51°14.976 2°54.505 10.121 3.366558 30.193264 6.382131
2010-04-22 15:04:46 51°14.783 2°54.709 10.1758 3.362553 30.178316 4.989169
2010-04-22 15:05:46 51°14.596 2°54.899 10.4878 0.062459 0.428202 -0.7568
2010-04-22 15:06:46 51°14.424 2°55.094 10.572 0.047791 0.324274 -0.791624
2010-04-22 15:07:46 51°14.272 2°55.273 10.6637 0.043318 0.292895 -0.7568
2010-04-22 15:08:49 51°14.157 2°55.383 10.7329 0.044046 0.297501 -0.791624
2010-04-22 15:09:49 51°14.065 2°55.457 10.7902 0.042069 0.283448 -0.7568
2010-04-22 15:10:50 51°13.947 2°55.542 10.951 0.041549 0.279689 -0.826448
2010-04-22 15:11:49 51°13.829 2°55.633 11.0206 0.040093 0.269393 -0.791624
2010-04-22 15:12:25 51°13.769 2°55.692 11.0772 3.321856 28.897385 -0.791624
2010-04-22 15:13:49 51°13.769 2°55.692 11.4233 0.187802 1.256259 -0.826448
2010-04-22 15:14:47 51°13.665 2°55.946 11.434 0.07869 0.505365 -0.826448